createdAt,value
2022-08-03T00:16:07.241Z,82
2022-08-03T00:26:09.813Z,82
2022-08-03T00:36:11.582Z,83
2022-08-03T00:46:16.415Z,84
2022-08-03T00:56:16.012Z,83
2022-08-03T01:16:20.044Z,84
2022-08-03T01:46:25.576Z,85
2022-08-03T01:56:27.586Z,86
2022-08-03T02:07:00.886Z,86
2022-08-03T02:16:31.758Z,86
2022-08-03T02:46:37.843Z,85
2022-08-03T02:56:39.939Z,86
2022-08-03T03:06:42.018Z,86
2022-08-03T03:26:46.221Z,89
2022-08-03T03:36:48.162Z,89
2022-08-03T03:46:50.640Z,90
2022-08-03T03:56:53.048Z,90
2022-08-03T04:06:55.101Z,91
2022-08-03T04:16:57.450Z,90
2022-08-03T04:27:00.029Z,90
2022-08-03T04:37:02.531Z,90
2022-08-03T04:47:05.153Z,88
2022-08-03T04:57:07.139Z,87
2022-08-03T05:07:11.793Z,86
2022-08-03T05:17:12.263Z,85
2022-08-03T05:27:14.280Z,84
2022-08-03T05:37:16.728Z,81
2022-08-03T05:47:18.943Z,79
2022-08-03T06:07:23.636Z,74
2022-08-03T06:17:25.592Z,71
2022-08-03T06:27:27.721Z,69
2022-08-03T06:37:30.131Z,68
2022-08-03T06:47:32.762Z,66
2022-08-03T06:57:34.887Z,65
2022-08-03T07:07:36.602Z,63
2022-08-03T07:17:39.007Z,63
2022-08-03T07:27:41.053Z,60
2022-08-03T07:37:46.097Z,58
2022-08-03T07:57:47.142Z,55
2022-08-03T08:07:51.532Z,52
2022-08-03T08:17:52.390Z,51
2022-08-03T08:28:21.725Z,50
2022-08-03T08:37:57.212Z,49
2022-08-03T08:48:00.978Z,47
2022-08-03T08:58:01.725Z,47
2022-08-03T09:08:03.718Z,47
2022-08-03T09:18:06.090Z,45
2022-08-03T09:38:12.443Z,43
2022-08-03T09:48:13.184Z,43
2022-08-03T09:58:15.653Z,43
2022-08-03T10:08:17.702Z,42
2022-08-03T10:18:19.567Z,42
2022-08-03T10:28:22.206Z,42
2022-08-03T10:38:24.587Z,41
2022-08-03T10:48:26.816Z,39
2022-08-03T10:58:30.706Z,39
2022-08-03T11:08:31.256Z,40
2022-08-03T11:18:33.736Z,39
2022-08-03T11:28:36.178Z,37
2022-08-03T11:48:40.966Z,37
2022-08-03T11:59:00.430Z,37
2022-08-03T12:08:44.561Z,38
2022-08-03T12:18:46.767Z,37
2022-08-03T12:28:49.829Z,36
2022-08-03T12:38:51.800Z,36
2022-08-03T12:48:54.406Z,36
2022-08-03T12:58:56.387Z,36
2022-08-03T13:08:58.557Z,35
2022-08-03T13:19:00.418Z,34
2022-08-03T13:29:02.525Z,34
2022-08-03T13:49:07.166Z,34
2022-08-03T13:59:09.368Z,33
2022-08-03T14:09:11.422Z,34
2022-08-03T14:19:13.821Z,34
2022-08-03T14:39:18.309Z,33
2022-08-03T14:50:35.058Z,34
2022-08-03T14:59:23.382Z,32
2022-08-03T15:09:25.281Z,31
2022-08-03T15:19:59.995Z,31
2022-08-03T15:30:04.671Z,31
2022-08-03T15:39:32.375Z,31
2022-08-03T15:59:36.286Z,30
2022-08-03T16:09:42.552Z,30
2022-08-03T16:19:40.385Z,30
2022-08-03T16:29:42.531Z,31
2022-08-03T16:39:44.194Z,31
2022-08-03T16:49:53.571Z,29
2022-08-03T16:59:48.760Z,30
2022-08-03T17:09:50.570Z,30
2022-08-03T17:29:55.553Z,29
2022-08-03T17:39:58.993Z,30
2022-08-03T17:49:59.366Z,30
2022-08-03T18:00:01.361Z,31
2022-08-03T18:10:10.906Z,31
2022-08-03T18:20:10.755Z,33
2022-08-03T18:30:07.605Z,35
2022-08-03T18:40:09.405Z,36
2022-08-03T19:00:14.367Z,39
2022-08-03T19:10:16.720Z,39
2022-08-03T19:20:18.626Z,40
2022-08-03T19:30:26.311Z,41
2022-08-03T19:40:22.085Z,42
2022-08-03T19:50:24.074Z,43
2022-08-03T20:00:26.376Z,44
2022-08-03T20:10:28.121Z,46
2022-08-03T20:30:32.538Z,48
2022-08-03T20:40:34.883Z,48
2022-08-03T20:50:36.977Z,49
2022-08-03T21:00:38.658Z,51
2022-08-03T21:10:42.020Z,52
2022-08-03T21:20:43.374Z,52
2022-08-03T21:23:35.297Z,52
2022-08-03T21:30:55.072Z,53
2022-08-03T21:40:57.039Z,54
2022-08-03T21:50:58.718Z,55
2022-08-03T22:01:01.047Z,57
2022-08-03T22:11:04.317Z,57
2022-08-03T22:21:05.140Z,58
2022-08-03T22:31:30.282Z,59
2022-08-03T22:41:09.163Z,60
2022-08-03T22:51:11.636Z,62
2022-08-03T23:01:13.417Z,66
2022-08-03T23:11:15.118Z,66
2022-08-03T23:21:17.099Z,66
2022-08-03T23:31:19.031Z,67
2022-08-03T23:41:21.121Z,69
2022-08-03T23:51:23.327Z,68
